Time;durP1;ratioP1;P1;durP2;ratioP2;P2;SDS_P1;SDS_P2;PMS_P1;PMS_P2;Temp;Humidity;BMP_temperature;BMP_pressure;BME280_temperature;BME280_humidity;BME280_pressure;Samples;Min_cycle;Max_cycle;Signal;HPM_P1;HPM_P2
2023/05/25 00:00:10;;;;;;;5.75;3.08;;;;;;;;;;5030081;28;20112;-78
2023/05/25 00:02:36;;;;;;;7.10;3.67;;;;;;;;;;5028323;28;20034;-79
2023/05/25 00:05:01;;;;;;;6.03;3.13;;;;;;;;;;5021994;28;20022;-78
2023/05/25 00:07:27;;;;;;;7.55;3.25;;;;;;;;;;5023185;28;20079;-79
2023/05/25 00:09:52;;;;;;;7.55;3.35;;;;;;;;;;5022319;28;20496;-78
2023/05/25 00:12:17;;;;;;;7.28;3.22;;;;;;;;;;5024217;28;20488;-79
2023/05/25 00:14:43;;;;;;;8.13;3.20;;;;;;;;;;5021447;28;20107;-78
2023/05/25 00:17:08;;;;;;;8.80;3.00;;;;;;;;;;5024637;28;20036;-80
2023/05/25 00:19:34;;;;;;;6.70;3.45;;;;;;;;;;5020086;28;20091;-79
2023/05/25 00:22:02;;;;;;;8.18;3.25;;;;;;;;;;5026667;28;20032;-78
2023/05/25 00:24:28;;;;;;;10.05;4.50;;;;;;;;;;5021550;28;20032;-79
2023/05/25 00:26:53;;;;;;;9.82;4.30;;;;;;;;;;5022345;28;20022;-79
2023/05/25 00:29:18;;;;;;;8.18;3.63;;;;;;;;;;5031411;28;20034;-79
2023/05/25 00:31:44;;;;;;;11.70;3.58;;;;;;;;;;5029954;28;20041;-79
2023/05/25 00:34:09;;;;;;;7.38;3.30;;;;;;;;;;5023595;28;20036;-78
2023/05/25 00:36:34;;;;;;;8.45;3.25;;;;;;;;;;5028447;28;20092;-78
2023/05/25 00:38:59;;;;;;;9.52;4.00;;;;;;;;;;5022436;28;20555;-78
2023/05/25 00:41:26;;;;;;;8.70;4.45;;;;;;;;;;5025067;28;20104;-78
2023/05/25 00:43:51;;;;;;;12.15;5.68;;;;;;;;;;5023660;28;20484;-78
2023/05/25 00:46:16;;;;;;;12.55;5.90;;;;;;;;;;5026016;28;20033;-78
2023/05/25 00:48:42;;;;;;;8.05;3.63;;;;;;;;;;5020365;28;20092;-80
2023/05/25 00:51:08;;;;;;;5.00;2.95;;;;;;;;;;5025655;28;20257;-78
2023/05/25 00:53:35;;;;;;;4.40;2.65;;;;;;;;;;5022635;28;20038;-79
2023/05/25 00:56:07;;;;;;;7.20;3.08;;;;;;;;;;5022941;28;20061;-79
2023/05/25 00:58:33;;;;;;;11.02;3.67;;;;;;;;;;5020793;28;20029;-79
2023/05/25 01:00:58;;;;;;;7.18;3.45;;;;;;;;;;5028127;28;20119;-79
2023/05/25 01:03:27;;;;;;;8.00;3.15;;;;;;;;;;5025508;28;20484;-79
2023/05/25 01:05:53;;;;;;;7.22;3.45;;;;;;;;;;5021210;28;20045;-79
2023/05/25 01:08:20;;;;;;;7.53;3.92;;;;;;;;;;5025158;28;20048;-79
2023/05/25 01:10:47;;;;;;;11.80;4.65;;;;;;;;;;5023544;28;20032;-79
2023/05/25 01:13:16;;;;;;;9.90;3.63;;;;;;;;;;5025440;28;20137;-79
2023/05/25 01:15:41;;;;;;;6.93;3.70;;;;;;;;;;5023727;28;20029;-79
2023/05/25 01:18:08;;;;;;;6.20;3.13;;;;;;;;;;5013051;28;20036;-79
2023/05/25 01:20:34;;;;;;;7.97;3.60;;;;;;;;;;5022031;28;20064;-79
2023/05/25 01:23:02;;;;;;;9.80;3.90;;;;;;;;;;5024801;28;20060;-79
2023/05/25 01:25:41;;;;;;;8.38;3.78;;;;;;;;;;5022531;28;20040;-79
2023/05/25 01:28:10;;;;;;;7.10;3.67;;;;;;;;;;5019677;28;20395;-79
2023/05/25 01:30:36;;;;;;;9.35;3.75;;;;;;;;;;5002889;28;20029;-78
2023/05/25 01:33:02;;;;;;;6.97;3.35;;;;;;;;;;5020842;28;20026;-79
2023/05/25 01:35:28;;;;;;;6.63;3.22;;;;;;;;;;5023271;28;20033;-79
2023/05/25 01:37:54;;;;;;;7.13;3.58;;;;;;;;;;5020497;28;20088;-78
2023/05/25 01:40:20;;;;;;;6.00;3.20;;;;;;;;;;5023492;28;20022;-78
2023/05/25 01:42:45;;;;;;;10.82;3.70;;;;;;;;;;5022700;28;20412;-78
2023/05/25 01:45:12;;;;;;;6.93;3.42;;;;;;;;;;5020154;28;20503;-79
2023/05/25 01:47:37;;;;;;;10.52;3.83;;;;;;;;;;5023169;28;20026;-78
2023/05/25 01:50:10;;;;;;;9.88;4.53;;;;;;;;;;5021902;28;20053;-79
2023/05/25 01:52:39;;;;;;;7.18;3.78;;;;;;;;;;5026288;28;20040;-79
2023/05/25 01:55:06;;;;;;;10.73;4.40;;;;;;;;;;5004052;28;20040;-78
2023/05/25 01:57:36;;;;;;;7.90;3.90;;;;;;;;;;5021594;28;20033;-79
2023/05/25 02:00:02;;;;;;;8.07;3.47;;;;;;;;;;5022074;28;20404;-78
2023/05/25 02:02:27;;;;;;;10.68;3.75;;;;;;;;;;5023446;28;20018;-78
2023/05/25 02:04:53;;;;;;;7.75;3.45;;;;;;;;;;5024912;28;20026;-78
2023/05/25 02:07:21;;;;;;;7.00;3.55;;;;;;;;;;5021587;28;20028;-79
2023/05/25 02:09:47;;;;;;;13.02;4.50;;;;;;;;;;5018745;28;20485;-79
2023/05/25 02:12:12;;;;;;;6.97;3.63;;;;;;;;;;5029278;28;20063;-78
2023/05/25 02:14:38;;;;;;;11.18;4.47;;;;;;;;;;5023277;28;20045;-79
2023/05/25 02:17:03;;;;;;;7.47;4.05;;;;;;;;;;5020887;28;20040;-79
2023/05/25 02:19:28;;;;;;;8.65;4.30;;;;;;;;;;5018764;28;20041;-79
2023/05/25 02:21:55;;;;;;;6.55;3.42;;;;;;;;;;5025346;28;20024;-79
2023/05/25 02:24:23;;;;;;;8.07;3.40;;;;;;;;;;5020870;28;20100;-78
2023/05/25 02:26:48;;;;;;;8.95;3.28;;;;;;;;;;5022804;28;20044;-78
2023/05/25 02:29:14;;;;;;;10.55;3.53;;;;;;;;;;5022868;28;20497;-78
2023/05/25 02:31:39;;;;;;;6.85;3.17;;;;;;;;;;5025260;28;20183;-78
2023/05/25 02:34:04;;;;;;;4.80;2.80;;;;;;;;;;5020838;28;20064;-78
2023/05/25 02:36:30;;;;;;;8.88;3.63;;;;;;;;;;5020197;28;20187;-78
2023/05/25 02:38:55;;;;;;;11.80;5.40;;;;;;;;;;5019591;28;20475;-79
2023/05/25 02:41:23;;;;;;;8.07;3.63;;;;;;;;;;5020792;28;20430;-79
2023/05/25 02:43:48;;;;;;;7.93;4.03;;;;;;;;;;5013565;28;20400;-78
2023/05/25 02:46:13;;;;;;;7.97;4.35;;;;;;;;;;5023292;28;20056;-78
2023/05/25 02:48:40;;;;;;;8.00;5.00;;;;;;;;;;5018800;28;20041;-78
2023/05/25 02:51:06;;;;;;;11.57;4.97;;;;;;;;;;5021972;28;20037;-79
2023/05/25 02:53:31;;;;;;;11.98;5.30;;;;;;;;;;5021287;28;20033;-78
2023/05/25 02:55:57;;;;;;;9.98;4.45;;;;;;;;;;5018606;28;20040;-78
2023/05/25 02:58:28;;;;;;;13.15;5.30;;;;;;;;;;5018578;28;20091;-79
2023/05/25 03:01:04;;;;;;;12.30;5.80;;;;;;;;;;5019993;28;20124;-78
2023/05/25 03:03:30;;;;;;;10.00;5.03;;;;;;;;;;5025717;28;20113;-78
2023/05/25 03:05:56;;;;;;;9.35;4.50;;;;;;;;;;5024051;28;20117;-79
2023/05/25 03:08:21;;;;;;;8.95;4.15;;;;;;;;;;5026402;28;20043;-78
2023/05/25 03:10:46;;;;;;;12.23;5.53;;;;;;;;;;5027563;28;20051;-79
2023/05/25 03:13:12;;;;;;;9.40;5.00;;;;;;;;;;5024934;28;20030;-79
2023/05/25 03:15:38;;;;;;;8.68;4.32;;;;;;;;;;5023221;28;20095;-79
2023/05/25 03:18:04;;;;;;;9.70;4.65;;;;;;;;;;5022271;28;20029;-78
2023/05/25 03:20:33;;;;;;;11.43;4.65;;;;;;;;;;5027468;28;20018;-79
2023/05/25 03:22:58;;;;;;;9.63;5.82;;;;;;;;;;5024815;28;20033;-79
2023/05/25 03:25:24;;;;;;;11.98;5.30;;;;;;;;;;5021255;28;20073;-79
2023/05/25 03:27:53;;;;;;;11.20;6.07;;;;;;;;;;5023917;28;20117;-79
2023/05/25 03:30:19;;;;;;;10.20;5.03;;;;;;;;;;5024705;28;20033;-78
2023/05/25 03:32:44;;;;;;;7.63;4.43;;;;;;;;;;5026400;28;20030;-78
2023/05/25 03:35:09;;;;;;;10.73;4.35;;;;;;;;;;5022013;28;20034;-78
2023/05/25 03:37:35;;;;;;;7.13;4.22;;;;;;;;;;5024174;28;20033;-78
2023/05/25 03:40:01;;;;;;;11.70;5.90;;;;;;;;;;5020754;28;20097;-79
2023/05/25 03:42:28;;;;;;;12.32;6.30;;;;;;;;;;5030244;28;20034;-79
2023/05/25 03:44:53;;;;;;;14.90;6.22;;;;;;;;;;5021686;28;20030;-79
2023/05/25 03:47:19;;;;;;;13.20;6.43;;;;;;;;;;5024032;28;20091;-78
2023/05/25 03:49:44;;;;;;;10.80;5.80;;;;;;;;;;5039962;23;20013;-76
2023/05/25 03:52:11;;;;;;;10.52;5.35;;;;;;;;;;5038393;28;20112;-76
2023/05/25 03:54:36;;;;;;;12.93;5.97;;;;;;;;;;5032632;28;20108;-76
2023/05/25 03:57:02;;;;;;;11.80;6.90;;;;;;;;;;5033114;28;20100;-76
2023/05/25 03:59:29;;;;;;;13.68;6.50;;;;;;;;;;5031503;28;20507;-76
2023/05/25 04:01:55;;;;;;;10.48;5.47;;;;;;;;;;5029852;28;20056;-76
2023/05/25 04:04:20;;;;;;;12.65;6.38;;;;;;;;;;5031574;28;20040;-76
2023/05/25 04:06:47;;;;;;;18.08;6.47;;;;;;;;;;5039743;28;20022;-76
2023/05/25 04:09:13;;;;;;;14.90;7.05;;;;;;;;;;5032053;28;20049;-76
2023/05/25 04:11:38;;;;;;;14.98;8.10;;;;;;;;;;5030654;28;20033;-76
2023/05/25 04:14:04;;;;;;;16.63;7.85;;;;;;;;;;5021754;28;20037;-77
2023/05/25 04:16:33;;;;;;;12.45;6.28;;;;;;;;;;5018434;28;20146;-77
2023/05/25 04:18:58;;;;;;;13.98;7.20;;;;;;;;;;5020442;28;20068;-76
2023/05/25 04:21:24;;;;;;;10.63;6.60;;;;;;;;;;5021836;28;20049;-77
2023/05/25 04:23:49;;;;;;;10.52;5.43;;;;;;;;;;5025908;28;20033;-77
2023/05/25 04:26:15;;;;;;;11.80;6.22;;;;;;;;;;5031081;28;20023;-76
2023/05/25 04:28:41;;;;;;;11.93;7.57;;;;;;;;;;5026336;28;20029;-76
2023/05/25 04:31:32;;;;;;;11.50;6.28;;;;;;;;;;5021435;28;20043;-77
2023/05/25 04:34:25;;;;;;;13.57;6.97;;;;;;;;;;5030951;28;20037;-77
2023/05/25 04:37:04;;;;;;;10.77;5.57;;;;;;;;;;5029476;28;20025;-77
2023/05/25 04:39:29;;;;;;;10.10;6.10;;;;;;;;;;5030069;28;20079;-77
2023/05/25 04:41:56;;;;;;;11.57;6.20;;;;;;;;;;5027435;28;20076;-76
2023/05/25 04:44:23;;;;;;;10.50;6.25;;;;;;;;;;5031281;28;20444;-77
2023/05/25 04:46:52;;;;;;;13.18;6.35;;;;;;;;;;5031009;28;20029;-77
2023/05/25 04:49:23;;;;;;;;;;;;;;;;;;5028862;28;20022;-77
2023/05/25 04:51:49;;;;;;;15.52;7.90;;;;;;;;;;5030033;28;20436;-77
2023/05/25 04:54:14;;;;;;;15.30;7.15;;;;;;;;;;5031998;28;20636;-77
2023/05/25 04:56:40;;;;;;;14.75;8.10;;;;;;;;;;5029849;28;20068;-77
2023/05/25 04:59:06;;;;;;;15.25;7.35;;;;;;;;;;5027469;28;20064;-77
2023/05/25 05:01:33;;;;;;;20.17;11.30;;;;;;;;;;5029830;28;20047;-77
2023/05/25 05:04:00;;;;;;;13.63;6.60;;;;;;;;;;5024257;28;20116;-77
2023/05/25 05:06:26;;;;;;;15.30;10.80;;;;;;;;;;5029299;28;20443;-77
2023/05/25 05:08:51;;;;;;;13.45;6.95;;;;;;;;;;5011737;28;20025;-77
2023/05/25 05:11:16;;;;;;;13.75;6.75;;;;;;;;;;5025976;28;20033;-77
2023/05/25 05:13:42;;;;;;;12.95;7.60;;;;;;;;;;5027278;28;20041;-77
2023/05/25 05:16:07;;;;;;;11.88;6.68;;;;;;;;;;5029129;28;20460;-77
2023/05/25 05:18:33;;;;;;;15.25;7.18;;;;;;;;;;5030320;28;20120;-77
2023/05/25 05:20:58;;;;;;;13.50;6.80;;;;;;;;;;5028832;28;20045;-77
2023/05/25 05:23:24;;;;;;;17.20;7.07;;;;;;;;;;5027951;28;20491;-77
2023/05/25 05:25:50;;;;;;;17.40;7.03;;;;;;;;;;5030476;28;20036;-77
2023/05/25 05:28:15;;;;;;;15.52;7.82;;;;;;;;;;5027291;28;20108;-77
2023/05/25 05:30:40;;;;;;;13.43;7.28;;;;;;;;;;5026737;28;20025;-77
2023/05/25 05:33:06;;;;;;;16.52;7.97;;;;;;;;;;5008196;28;20514;-77
2023/05/25 05:35:37;;;;;;;16.13;8.05;;;;;;;;;;5030636;28;20376;-77
2023/05/25 05:38:12;;;;;;;14.18;7.70;;;;;;;;;;5024682;28;20048;-77
2023/05/25 05:40:37;;;;;;;11.02;6.47;;;;;;;;;;5021345;28;20061;-77
2023/05/25 05:43:03;;;;;;;16.30;8.30;;;;;;;;;;5026985;28;20029;-77
2023/05/25 05:45:28;;;;;;;10.93;6.68;;;;;;;;;;5029929;28;20025;-77
2023/05/25 05:47:54;;;;;;;11.77;7.22;;;;;;;;;;5030319;28;20032;-77
2023/05/25 05:50:20;;;;;;;16.00;7.03;;;;;;;;;;5024832;28;20641;-77
2023/05/25 05:52:45;;;;;;;13.07;7.95;;;;;;;;;;5019925;28;20045;-77
2023/05/25 05:55:11;;;;;;;15.35;7.45;;;;;;;;;;5013338;28;20021;-77
2023/05/25 05:57:38;;;;;;;21.42;11.00;;;;;;;;;;5024410;28;20036;-77
2023/05/25 06:00:05;;;;;;;13.93;7.65;;;;;;;;;;5027740;28;20018;-77
2023/05/25 06:02:40;;;;;;;12.80;6.93;;;;;;;;;;5021521;28;20033;-77
2023/05/25 06:05:05;;;;;;;17.38;7.70;;;;;;;;;;5029906;28;20535;-77
2023/05/25 06:07:33;;;;;;;12.45;7.35;;;;;;;;;;5029005;28;20033;-77
2023/05/25 06:09:59;;;;;;;15.95;8.43;;;;;;;;;;5027818;28;20022;-77
2023/05/25 06:12:25;;;;;;;15.52;8.45;;;;;;;;;;5025684;28;20092;-77
2023/05/25 06:14:50;;;;;;;13.43;8.20;;;;;;;;;;5027982;28;20457;-77
2023/05/25 06:17:16;;;;;;;12.63;7.18;;;;;;;;;;5027379;28;20033;-77
2023/05/25 06:19:43;;;;;;;11.45;6.28;;;;;;;;;;5011465;28;20030;-77
2023/05/25 06:22:08;;;;;;;13.90;7.75;;;;;;;;;;5025337;28;20029;-77
2023/05/25 06:24:33;;;;;;;13.00;6.88;;;;;;;;;;5029391;28;20491;-77
2023/05/25 06:26:59;;;;;;;14.02;8.68;;;;;;;;;;5029131;28;20498;-77
2023/05/25 06:29:24;;;;;;;13.00;8.10;;;;;;;;;;5027052;28;20037;-77
2023/05/25 06:31:49;;;;;;;14.40;7.72;;;;;;;;;;5025130;28;20137;-78
2023/05/25 06:34:15;;;;;;;13.55;6.60;;;;;;;;;;5022678;28;20030;-78
2023/05/25 06:36:41;;;;;;;13.02;7.18;;;;;;;;;;5031433;28;20033;-77
2023/05/25 06:39:06;;;;;;;13.30;7.00;;;;;;;;;;5033387;28;20033;-77
2023/05/25 06:41:31;;;;;;;12.45;5.88;;;;;;;;;;5030138;28;20040;-77
2023/05/25 06:43:57;;;;;;;14.10;7.80;;;;;;;;;;5031466;28;20179;-77
2023/05/25 06:46:30;;;;;;;11.68;6.97;;;;;;;;;;5034116;28;20021;-77
2023/05/25 06:49:00;;;;;;;12.40;7.10;;;;;;;;;;5034233;28;20033;-77
2023/05/25 06:51:26;;;;;;;12.30;6.80;;;;;;;;;;5032996;28;20041;-77
2023/05/25 06:53:51;;;;;;;14.15;6.45;;;;;;;;;;5035378;28;20040;-77
2023/05/25 06:56:17;;;;;;;12.15;6.72;;;;;;;;;;5030627;28;20034;-77
2023/05/25 06:58:43;;;;;;;15.98;6.43;;;;;;;;;;5035183;28;20053;-77
2023/05/25 07:01:08;;;;;;;13.68;6.53;;;;;;;;;;5035479;28;20391;-77
2023/05/25 07:03:33;;;;;;;11.68;6.85;;;;;;;;;;5034883;28;20029;-78
2023/05/25 07:05:59;;;;;;;10.55;5.82;;;;;;;;;;5030732;28;20027;-77
2023/05/25 07:08:24;;;;;;;10.55;5.15;;;;;;;;;;5034198;28;20053;-77
2023/05/25 07:10:49;;;;;;;10.80;6.20;;;;;;;;;;5030094;28;20033;-77
2023/05/25 07:13:14;;;;;;;11.25;5.65;;;;;;;;;;5032670;28;20037;-77
2023/05/25 07:15:40;;;;;;;11.27;5.65;;;;;;;;;;5033675;28;20025;-78
2023/05/25 07:18:05;;;;;;;11.73;5.50;;;;;;;;;;5032667;28;20043;-77
2023/05/25 07:20:32;;;;;;;12.90;5.53;;;;;;;;;;5034627;28;20036;-77
2023/05/25 07:22:58;;;;;;;10.48;6.20;;;;;;;;;;5027824;28;20163;-77
2023/05/25 07:25:23;;;;;;;12.98;4.80;;;;;;;;;;5032879;28;20065;-77
2023/05/25 07:27:49;;;;;;;11.85;5.50;;;;;;;;;;5031384;28;20017;-77
2023/05/25 07:30:14;;;;;;;13.60;4.70;;;;;;;;;;5032031;28;20025;-78
2023/05/25 07:32:40;;;;;;;9.57;3.75;;;;;;;;;;5025392;28;20056;-78
2023/05/25 07:35:05;;;;;;;8.77;4.35;;;;;;;;;;5031924;28;20033;-78
2023/05/25 07:37:30;;;;;;;9.73;3.78;;;;;;;;;;5033624;28;20041;-78
2023/05/25 07:39:55;;;;;;;13.07;3.80;;;;;;;;;;5033714;28;20053;-78
2023/05/25 07:42:21;;;;;;;7.88;4.10;;;;;;;;;;5027872;28;20029;-78
2023/05/25 07:44:47;;;;;;;11.63;3.97;;;;;;;;;;5031103;28;20034;-78
2023/05/25 07:47:12;;;;;;;10.63;3.90;;;;;;;;;;5033164;28;20121;-78
2023/05/25 07:49:37;;;;;;;9.35;5.30;;;;;;;;;;5030557;28;20060;-78
2023/05/25 07:52:04;;;;;;;9.57;3.20;;;;;;;;;;5030162;28;20492;-78
2023/05/25 07:54:30;;;;;;;11.23;3.65;;;;;;;;;;5031411;28;20040;-78
2023/05/25 07:56:55;;;;;;;6.85;3.10;;;;;;;;;;5031734;28;20038;-78
2023/05/25 07:59:20;;;;;;;9.55;3.10;;;;;;;;;;5032616;28;20021;-78
2023/05/25 08:01:45;;;;;;;9.45;3.22;;;;;;;;;;5038840;28;20091;-78
2023/05/25 08:04:11;;;;;;;7.78;3.35;;;;;;;;;;5031933;28;20072;-78
2023/05/25 08:06:37;;;;;;;11.02;3.20;;;;;;;;;;5034685;28;20124;-78
2023/05/25 08:09:03;;;;;;;10.80;3.40;;;;;;;;;;5034412;28;20087;-78
2023/05/25 08:11:30;;;;;;;12.27;3.83;;;;;;;;;;5032293;28;20038;-78
2023/05/25 08:13:55;;;;;;;7.43;3.25;;;;;;;;;;5029619;28;20091;-78
2023/05/25 08:16:20;;;;;;;8.18;2.95;;;;;;;;;;5033135;28;20038;-78
2023/05/25 08:18:45;;;;;;;6.45;2.42;;;;;;;;;;5034555;28;20030;-78
2023/05/25 08:21:11;;;;;;;7.90;2.85;;;;;;;;;;5032701;28;20481;-78
2023/05/25 08:23:41;;;;;;;8.20;2.80;;;;;;;;;;5032840;28;20034;-78
2023/05/25 08:26:06;;;;;;;10.38;3.42;;;;;;;;;;5031665;28;20026;-78
2023/05/25 08:28:31;;;;;;;10.00;3.65;;;;;;;;;;5033844;28;20470;-78
2023/05/25 08:30:57;;;;;;;9.80;3.27;;;;;;;;;;5033746;28;20183;-78
2023/05/25 08:33:22;;;;;;;6.53;3.30;;;;;;;;;;5033986;28;20760;-78
2023/05/25 08:35:49;;;;;;;10.40;3.65;;;;;;;;;;5032668;28;20037;-78
2023/05/25 08:38:14;;;;;;;9.70;3.63;;;;;;;;;;5033816;28;20108;-78
2023/05/25 08:40:40;;;;;;;9.35;3.25;;;;;;;;;;5033502;28;20115;-78
2023/05/25 08:43:05;;;;;;;11.23;3.53;;;;;;;;;;5030120;28;20033;-78
2023/05/25 08:45:30;;;;;;;9.57;3.72;;;;;;;;;;5033813;28;20033;-78
2023/05/25 08:47:57;;;;;;;11.07;3.40;;;;;;;;;;5033832;28;20035;-78
2023/05/25 08:50:23;;;;;;;10.85;4.03;;;;;;;;;;5032169;28;20424;-78
2023/05/25 08:52:50;;;;;;;12.57;3.67;;;;;;;;;;5027725;28;20026;-78
2023/05/25 08:55:17;;;;;;;8.07;3.20;;;;;;;;;;5033488;28;20067;-79
2023/05/25 08:58:01;;;;;;;9.32;3.85;;;;;;;;;;5033153;28;20049;-78
2023/05/25 09:00:38;;;;;;;11.85;3.17;;;;;;;;;;5031118;28;20025;-78
2023/05/25 09:03:16;;;;;;;7.75;2.83;;;;;;;;;;5047540;28;20041;-78
2023/05/25 09:05:41;;;;;;;9.25;4.05;;;;;;;;;;5032688;28;20373;-78
2023/05/25 09:08:07;;;;;;;7.07;3.15;;;;;;;;;;5033885;28;20044;-78
2023/05/25 09:10:36;;;;;;;10.02;3.35;;;;;;;;;;5033714;28;20072;-78
2023/05/25 09:13:02;;;;;;;10.75;3.25;;;;;;;;;;5031119;28;20061;-78
2023/05/25 09:15:27;;;;;;;9.80;3.30;;;;;;;;;;5031207;28;20029;-78
2023/05/25 09:17:53;;;;;;;7.90;3.05;;;;;;;;;;5033068;28;20033;-79
2023/05/25 09:20:18;;;;;;;7.57;2.97;;;;;;;;;;5033024;28;20029;-78
2023/05/25 09:22:44;;;;;;;7.50;3.00;;;;;;;;;;5033056;28;20112;-78
2023/05/25 09:25:10;;;;;;;8.38;2.85;;;;;;;;;;5033551;28;20025;-78
2023/05/25 09:27:36;;;;;;;7.10;2.35;;;;;;;;;;5017063;28;20502;-78
2023/05/25 09:30:02;;;;;;;7.97;3.15;;;;;;;;;;5028660;28;20021;-78
2023/05/25 09:32:28;;;;;;;10.88;3.35;;;;;;;;;;5039845;28;20112;-78
2023/05/25 09:34:55;;;;;;;8.77;3.67;;;;;;;;;;5033349;28;20101;-78
2023/05/25 09:37:20;;;;;;;8.38;4.28;;;;;;;;;;5032942;28;20033;-79
2023/05/25 09:39:46;;;;;;;9.57;4.22;;;;;;;;;;5029058;28;20782;-76
2023/05/25 09:42:11;;;;;;;13.25;4.28;;;;;;;;;;5029548;28;20029;-76
2023/05/25 09:44:37;;;;;;;8.57;2.90;;;;;;;;;;5028467;28;20053;-76
2023/05/25 09:47:05;;;;;;;6.97;3.05;;;;;;;;;;5030914;28;20033;-76
2023/05/25 09:49:31;;;;;;;7.45;2.90;;;;;;;;;;5036517;28;20439;-76
2023/05/25 09:51:56;;;;;;;9.57;2.95;;;;;;;;;;5024635;28;20030;-76
2023/05/25 09:54:22;;;;;;;7.67;2.87;;;;;;;;;;5027409;28;20555;-76
2023/05/25 09:56:47;;;;;;;8.75;3.50;;;;;;;;;;5027107;28;20292;-76
2023/05/25 09:59:12;;;;;;;5.38;2.55;;;;;;;;;;5030168;28;20289;-76
2023/05/25 10:01:39;;;;;;;8.25;4.13;;;;;;;;;;5027244;28;20117;-75
2023/05/25 10:04:05;;;;;;;9.55;3.20;;;;;;;;;;5034472;28;20454;-78
2023/05/25 10:06:30;;;;;;;9.02;4.57;;;;;;;;;;5033273;28;20038;-78
2023/05/25 10:08:56;;;;;;;7.55;4.00;;;;;;;;;;5031997;28;20399;-78
2023/05/25 10:11:25;;;;;;;7.57;4.15;;;;;;;;;;5032377;28;20029;-78
2023/05/25 10:13:52;;;;;;;7.25;3.20;;;;;;;;;;5031061;28;20168;-78
2023/05/25 10:16:17;;;;;;;6.82;2.95;;;;;;;;;;5036797;28;20037;-78
2023/05/25 10:18:46;;;;;;;6.80;2.90;;;;;;;;;;5036822;28;20249;-78
2023/05/25 10:21:12;;;;;;;7.25;2.95;;;;;;;;;;5032783;28;20030;-78
2023/05/25 10:23:40;;;;;;;9.38;3.33;;;;;;;;;;5029699;28;20033;-78
2023/05/25 10:26:06;;;;;;;11.32;3.38;;;;;;;;;;5035144;28;20048;-78
2023/05/25 10:28:35;;;;;;;9.75;2.78;;;;;;;;;;5036712;28;20037;-78
2023/05/25 10:31:01;;;;;;;7.30;2.95;;;;;;;;;;5035754;28;20040;-78
2023/05/25 10:33:27;;;;;;;7.72;3.33;;;;;;;;;;5033154;28;20044;-76
2023/05/25 10:35:53;;;;;;;8.02;3.10;;;;;;;;;;5031016;28;20026;-76
2023/05/25 10:38:18;;;;;;;9.80;3.25;;;;;;;;;;5032474;28;20045;-76
2023/05/25 10:40:46;;;;;;;8.75;3.90;;;;;;;;;;5033559;28;20037;-76
2023/05/25 10:43:12;;;;;;;10.63;5.35;;;;;;;;;;5027472;28;20163;-76
2023/05/25 10:45:37;;;;;;;8.57;3.60;;;;;;;;;;5034442;28;20037;-76
2023/05/25 10:48:02;;;;;;;8.05;3.03;;;;;;;;;;5034477;28;20176;-76
2023/05/25 10:50:33;;;;;;;6.93;2.95;;;;;;;;;;5030370;28;20148;-76
2023/05/25 10:53:04;;;;;;;8.80;3.28;;;;;;;;;;5030030;28;20392;-76
2023/05/25 10:55:40;;;;;;;7.30;2.90;;;;;;;;;;5030040;28;20029;-75
2023/05/25 10:58:07;;;;;;;10.52;3.10;;;;;;;;;;5033837;28;20029;-76
2023/05/25 11:00:32;;;;;;;5.88;2.53;;;;;;;;;;5034177;28;20095;-76
2023/05/25 11:02:57;;;;;;;10.17;3.30;;;;;;;;;;5033904;28;20025;-76
2023/05/25 11:05:22;;;;;;;8.93;3.05;;;;;;;;;;5034218;28;20280;-76
2023/05/25 11:07:51;;;;;;;7.07;2.43;;;;;;;;;;5034150;28;20100;-76
2023/05/25 11:10:16;;;;;;;6.78;2.55;;;;;;;;;;5033799;28;20759;-76
2023/05/25 11:12:41;;;;;;;8.70;2.93;;;;;;;;;;5031472;28;20030;-76
2023/05/25 11:15:17;;;;;;;6.85;2.60;;;;;;;;;;5030269;28;20288;-76
2023/05/25 11:17:59;;;;;;;7.32;2.70;;;;;;;;;;5026174;28;20025;-76
2023/05/25 11:20:26;;;;;;;6.95;3.00;;;;;;;;;;5031968;28;20669;-76
2023/05/25 11:22:51;;;;;;;9.52;3.28;;;;;;;;;;5025708;28;20049;-76
2023/05/25 11:25:36;;;;;;;7.72;2.70;;;;;;;;;;5029507;28;20057;-76
2023/05/25 11:28:02;;;;;;;7.15;3.08;;;;;;;;;;5031615;28;20025;-76
2023/05/25 11:30:27;;;;;;;8.00;2.95;;;;;;;;;;5032346;28;20534;-76
2023/05/25 11:32:53;;;;;;;6.22;3.30;;;;;;;;;;5029984;28;20026;-76
2023/05/25 11:35:20;;;;;;;9.82;3.35;;;;;;;;;;5033739;28;20041;-76
2023/05/25 11:37:49;;;;;;;8.95;3.20;;;;;;;;;;5032459;28;20029;-76
2023/05/25 11:40:15;;;;;;;7.93;3.10;;;;;;;;;;5033280;28;20507;-76
2023/05/25 11:42:40;;;;;;;7.53;3.58;;;;;;;;;;5033323;28;20025;-76
2023/05/25 11:45:09;;;;;;;8.27;3.42;;;;;;;;;;5032955;28;20063;-78
2023/05/25 11:47:34;;;;;;;8.65;2.72;;;;;;;;;;5034191;28;20072;-78
2023/05/25 11:50:00;;;;;;;8.03;3.20;;;;;;;;;;5033561;28;20049;-78
2023/05/25 11:52:26;;;;;;;5.80;2.37;;;;;;;;;;5033446;28;20649;-78
2023/05/25 11:54:51;;;;;;;7.75;2.75;;;;;;;;;;5033718;28;20280;-78
2023/05/25 11:57:18;;;;;;;5.70;2.53;;;;;;;;;;5033857;28;20094;-78
2023/05/25 11:59:51;;;;;;;7.80;2.65;;;;;;;;;;5032003;28;20045;-77
2023/05/25 12:02:16;;;;;;;6.45;2.80;;;;;;;;;;5030332;28;20117;-77
2023/05/25 12:04:51;;;;;;;6.35;2.75;;;;;;;;;;5033570;28;20109;-77
2023/05/25 12:07:16;;;;;;;9.25;3.42;;;;;;;;;;5033622;28;20033;-78
2023/05/25 12:09:41;;;;;;;7.13;3.20;;;;;;;;;;5031949;28;20036;-77
2023/05/25 12:12:07;;;;;;;6.70;3.30;;;;;;;;;;5032698;28;20291;-77
2023/05/25 12:14:34;;;;;;;10.23;4.25;;;;;;;;;;5026520;28;20295;-78
2023/05/25 12:17:00;;;;;;;8.80;4.43;;;;;;;;;;5032340;28;20029;-78
2023/05/25 12:19:25;;;;;;;10.00;3.90;;;;;;;;;;5032928;28;20036;-78
2023/05/25 12:21:50;;;;;;;7.97;4.50;;;;;;;;;;5033667;28;20489;-78
2023/05/25 12:24:17;;;;;;;7.78;3.22;;;;;;;;;;5032136;28;20034;-78
2023/05/25 12:26:46;;;;;;;7.93;3.85;;;;;;;;;;5029603;28;20399;-77
2023/05/25 12:29:11;;;;;;;8.60;4.32;;;;;;;;;;5031732;28;20108;-78
2023/05/25 12:31:39;;;;;;;6.75;2.83;;;;;;;;;;5031066;28;20518;-78
2023/05/25 12:34:04;;;;;;;6.05;3.10;;;;;;;;;;5033264;28;20124;-78
2023/05/25 12:36:39;;;;;;;8.63;3.33;;;;;;;;;;5032649;28;20508;-78
2023/05/25 12:39:05;;;;;;;7.28;2.97;;;;;;;;;;5032054;28;20300;-78
2023/05/25 12:41:31;;;;;;;9.40;3.83;;;;;;;;;;5033571;28;20033;-78
2023/05/25 12:43:56;;;;;;;5.72;2.50;;;;;;;;;;5030591;28;20037;-78
2023/05/25 12:46:25;;;;;;;6.90;3.20;;;;;;;;;;5030125;28;20112;-78
2023/05/25 12:48:50;;;;;;;7.10;2.88;;;;;;;;;;5032810;28;20029;-78
2023/05/25 12:51:16;;;;;;;7.05;2.80;;;;;;;;;;5032187;28;20048;-78
2023/05/25 12:53:50;;;;;;;6.45;3.13;;;;;;;;;;5029690;28;20151;-78
2023/05/25 12:56:15;;;;;;;6.00;3.13;;;;;;;;;;5027896;28;20117;-78
2023/05/25 12:58:40;;;;;;;8.33;3.40;;;;;;;;;;5032144;28;20168;-78
2023/05/25 13:01:07;;;;;;;7.82;3.03;;;;;;;;;;5028589;28;20303;-78
2023/05/25 13:03:32;;;;;;;9.00;2.92;;;;;;;;;;5030756;28;20083;-78
2023/05/25 13:06:01;;;;;;;7.80;2.73;;;;;;;;;;5032523;28;20026;-78
2023/05/25 13:08:26;;;;;;;5.22;2.70;;;;;;;;;;5030049;28;20272;-78
2023/05/25 13:10:51;;;;;;;7.50;3.20;;;;;;;;;;5029424;28;20467;-78
2023/05/25 13:13:16;;;;;;;7.17;3.03;;;;;;;;;;5027028;28;20037;-78
2023/05/25 13:15:42;;;;;;;7.73;4.40;;;;;;;;;;5032403;28;20286;-78
2023/05/25 13:18:07;;;;;;;9.17;3.67;;;;;;;;;;5033175;28;20270;-78
2023/05/25 13:20:32;;;;;;;6.13;3.38;;;;;;;;;;5032766;28;20029;-78
2023/05/25 13:22:57;;;;;;;7.68;3.42;;;;;;;;;;5030725;28;20484;-78
2023/05/25 13:25:25;;;;;;;8.03;3.43;;;;;;;;;;5029935;28;20029;-78
2023/05/25 13:27:51;;;;;;;7.10;3.17;;;;;;;;;;5033372;28;20268;-78
2023/05/25 13:30:17;;;;;;;6.00;3.50;;;;;;;;;;5029143;28;20522;-78
2023/05/25 13:32:43;;;;;;;6.00;2.70;;;;;;;;;;5030398;28;20041;-78
2023/05/25 13:35:11;;;;;;;7.57;3.38;;;;;;;;;;5032052;28;20047;-78
2023/05/25 13:37:36;;;;;;;7.93;3.40;;;;;;;;;;5031851;28;20029;-78
2023/05/25 13:40:02;;;;;;;9.05;3.60;;;;;;;;;;5033012;28;20037;-78
2023/05/25 13:42:27;;;;;;;6.47;3.30;;;;;;;;;;5026719;28;20051;-78
2023/05/25 13:44:52;;;;;;;6.88;3.20;;;;;;;;;;5032980;28;20033;-78
2023/05/25 13:47:17;;;;;;;6.53;3.22;;;;;;;;;;5032773;28;20073;-78
2023/05/25 13:49:43;;;;;;;8.37;3.87;;;;;;;;;;5032719;28;20037;-78
2023/05/25 13:52:08;;;;;;;7.85;3.42;;;;;;;;;;5031373;28;20037;-78
2023/05/25 13:54:33;;;;;;;9.02;3.42;;;;;;;;;;5033612;28;20163;-78
2023/05/25 13:56:59;;;;;;;7.57;3.30;;;;;;;;;;5029017;28;20403;-78
2023/05/25 13:59:24;;;;;;;7.17;3.70;;;;;;;;;;5031760;28;20285;-78
2023/05/25 14:01:49;;;;;;;10.57;3.72;;;;;;;;;;5031807;28;20036;-78
2023/05/25 14:04:15;;;;;;;7.13;3.45;;;;;;;;;;5029904;28;20061;-78
2023/05/25 14:06:40;;;;;;;11.88;5.43;;;;;;;;;;5032692;28;20045;-78
2023/05/25 14:09:06;;;;;;;7.13;3.15;;;;;;;;;;5032529;28;20022;-78
2023/05/25 14:11:32;;;;;;;7.60;4.00;;;;;;;;;;5032466;28;20067;-78
2023/05/25 14:13:57;;;;;;;11.15;3.75;;;;;;;;;;5029359;28;20033;-78
2023/05/25 14:16:22;;;;;;;8.50;3.57;;;;;;;;;;5028659;28;20506;-78
2023/05/25 14:18:47;;;;;;;6.70;2.93;;;;;;;;;;5025812;28;20293;-78
2023/05/25 14:21:13;;;;;;;6.78;3.70;;;;;;;;;;5029823;28;20805;-78
2023/05/25 14:23:38;;;;;;;8.25;3.90;;;;;;;;;;5029559;28;20021;-78
2023/05/25 14:26:03;;;;;;;9.70;4.00;;;;;;;;;;5030997;28;20403;-78
2023/05/25 14:28:28;;;;;;;8.10;3.90;;;;;;;;;;5028537;28;20287;-78
2023/05/25 14:30:54;;;;;;;8.80;3.90;;;;;;;;;;5025485;28;20033;-78
2023/05/25 14:33:19;;;;;;;7.40;3.80;;;;;;;;;;5030016;28;20363;-78